Terminal Aerodrome Forecast
Issued by NWS

Home | Current Version | Previous Version | Text Only | Print | Product List | Glossary On
Versions: 1 2 3 4 5 6 7 8 9 10 11 12 13 14 15 16 17 18
993
FTUS46 KSEW 252327
TAFPAE
TAF
KPAE 252327Z 2600/2624 01005KT P6SM FEW250
     FM260400 02005KT P6SM SCT050
     FM261000 VRB04KT 6SM BR OVC005
     FM261900 26005KT P6SM SCT015 SCT040
     FM262100 29006KT P6SM FEW040=

USA.gov is the U.S. government's official web portal to all federal, state and local government web resources and services.